Time;durP1;ratioP1;P1;durP2;ratioP2;P2;SDS_P1;SDS_P2;PMS_P1;PMS_P2;Temp;Humidity;BMP_temperature;BMP_pressure;BME280_temperature;BME280_humidity;BME280_pressure;Samples;Min_cycle;Max_cycle;Signal;HPM_P1;HPM_P2
2022/09/22 00:01:06;;;;;;;;;;;11.20;99.90;;;;;;5110309;28;19948;-58
2022/09/22 00:03:35;;;;;;;;;;;11.20;99.90;;;;;;5108178;27;19928;-57
2022/09/22 00:06:07;;;;;;;;;;;11.10;99.90;;;;;;5089001;28;20493;-58
2022/09/22 00:08:36;;;;;;;;;;;11.10;99.90;;;;;;5109105;28;19927;-58
2022/09/22 00:11:12;;;;;;;;;;;11.10;99.90;;;;;;5108974;28;20093;-58
2022/09/22 00:13:40;;;;;;;;;;;11.00;99.90;;;;;;5110107;27;19923;-58
2022/09/22 00:16:08;;;;;;;;;;;11.00;99.90;;;;;;5097614;27;19931;-58
2022/09/22 00:18:36;;;;;;;;;;;11.00;99.90;;;;;;5102031;27;19950;-59
2022/09/22 00:21:06;;;;;;;;;;;10.90;99.90;;;;;;5101300;28;19946;-58
2022/09/22 00:23:35;;;;;;;;;;;10.90;99.90;;;;;;5103979;28;19924;-57
2022/09/22 00:26:07;;;;;;;;;;;10.90;99.90;;;;;;5103704;28;19931;-57
2022/09/22 00:28:35;;;;;;;;;;;10.80;99.90;;;;;;5096810;28;20424;-58
2022/09/22 00:31:03;;;;;;;;;;;10.90;99.90;;;;;;5086444;28;19943;-59
2022/09/22 00:33:31;;;;;;;;;;;10.80;99.90;;;;;;5105467;27;19932;-59
2022/09/22 00:35:59;;;;;;;;;;;11.20;99.90;;;;;;5100681;28;19928;-57
2022/09/22 00:38:26;;;;;;;;;;;10.80;99.90;;;;;;5103381;27;20422;-58
2022/09/22 00:40:54;;;;;;;;;;;10.80;99.90;;;;;;5102517;28;19946;-59
2022/09/22 00:43:24;;;;;;;;;;;10.70;99.90;;;;;;5103623;27;19930;-59
2022/09/22 00:45:58;;;;;;;;;;;10.70;99.90;;;;;;5082436;28;19927;-59
2022/09/22 00:48:28;;;;;;;;;;;10.70;99.90;;;;;;5079712;28;19931;-58
2022/09/22 00:50:58;;;;;;;;;;;10.70;99.90;;;;;;5075873;28;19955;-58
2022/09/22 00:53:26;;;;;;;;;;;10.60;99.90;;;;;;5101839;28;20303;-59
2022/09/22 00:56:13;;;;;;;;;;;10.60;99.90;;;;;;5050110;28;19931;-57
2022/09/22 00:58:51;;;;;;;;;;;10.60;99.90;;;;;;5101876;28;19924;-57
2022/09/22 01:01:19;;;;;;;;;;;10.50;99.90;;;;;;5101684;28;19932;-58
2022/09/22 01:03:46;;;;;;;;;;;10.50;99.90;;;;;;5098298;27;19934;-58
2022/09/22 01:06:17;;;;;;;;;;;10.50;99.90;;;;;;5098839;27;19932;-57
2022/09/22 01:08:45;;;;;;;;;;;10.40;99.90;;;;;;5100759;27;19939;-58
2022/09/22 01:11:14;;;;;;;;;;;10.40;99.90;;;;;;5099640;28;19924;-57
2022/09/22 01:13:53;;;;;;;;;;;10.30;99.90;;;;;;5106169;27;19924;-58
2022/09/22 01:16:30;;;;;;;;;;;10.30;99.90;;;;;;5099499;28;20299;-58
2022/09/22 01:19:01;;;;;;;;;;;10.20;99.90;;;;;;5101137;28;19931;-56
2022/09/22 01:21:34;;;;;;;;;;;10.20;99.90;;;;;;5098712;28;19928;-57
2022/09/22 01:24:19;;;;;;;;;;;10.20;99.90;;;;;;5102261;27;19939;-57
2022/09/22 01:27:06;;;;;;;;;;;10.20;99.90;;;;;;5084370;28;19927;-57
2022/09/22 01:29:36;;;;;;;;;;;10.20;99.90;;;;;;5072247;28;19938;-56
2022/09/22 01:32:09;;;;;;;;;;;10.20;99.90;;;;;;5082512;28;19932;-57
2022/09/22 01:34:36;;;;;;;;;;;10.20;99.90;;;;;;5103385;28;19928;-57
2022/09/22 01:37:13;;;;;;;;;;;10.20;99.90;;;;;;5104128;28;20470;-57
2022/09/22 01:39:42;;;;;;;;;;;10.10;99.90;;;;;;5103055;27;19923;-58
2022/09/22 01:42:12;;;;;;;;;;;10.10;99.90;;;;;;5104359;28;19928;-58
2022/09/22 01:44:44;;;;;;;;;;;10.10;99.90;;;;;;5101232;28;20381;-58
2022/09/22 01:47:14;;;;;;;;;;;10.10;99.90;;;;;;5101326;28;19924;-56
2022/09/22 01:49:45;;;;;;;;;;;10.10;99.90;;;;;;5084269;28;19924;-57
2022/09/22 01:52:16;;;;;;;;;;;10.00;99.90;;;;;;5104124;28;19928;-57
2022/09/22 01:54:46;;;;;;;;;;;10.10;99.90;;;;;;5101350;28;19924;-58
2022/09/22 01:57:22;;;;;;;;;;;10.10;99.90;;;;;;5088489;28;19932;-58
2022/09/22 01:59:52;;;;;;;;;;;10.10;99.90;;;;;;5085551;28;19928;-58
2022/09/22 02:02:24;;;;;;;;;;;10.00;99.90;;;;;;5086596;28;19928;-59
2022/09/22 02:04:55;;;;;;;;;;;10.00;99.90;;;;;;5098831;27;19924;-59
2022/09/22 02:07:29;;;;;;;;;;;10.00;99.90;;;;;;5108302;28;20405;-59
2022/09/22 02:09:58;;;;;;;;;;;9.90;99.90;;;;;;5102500;28;19931;-58
2022/09/22 02:12:25;;;;;;;;;;;9.90;99.90;;;;;;5091891;28;19931;-57
2022/09/22 02:14:53;;;;;;;;;;;9.90;99.90;;;;;;5109800;28;19927;-57
2022/09/22 02:17:20;;;;;;;;;;;9.90;99.90;;;;;;5098025;28;19939;-59
2022/09/22 02:19:47;;;;;;;;;;;9.80;99.90;;;;;;5107562;28;19935;-59
2022/09/22 02:22:15;;;;;;;;;;;9.80;99.90;;;;;;5083269;28;19943;-59
2022/09/22 02:24:43;;;;;;;;;;;9.80;99.90;;;;;;5082560;28;20308;-58
2022/09/22 02:27:24;;;;;;;;;;;9.80;99.90;;;;;;5114811;28;19924;-59
2022/09/22 02:30:11;;;;;;;;;;;9.80;99.90;;;;;;5108334;28;19928;-59
2022/09/22 02:32:41;;;;;;;;;;;9.80;99.90;;;;;;5095070;28;19924;-59
2022/09/22 02:35:09;;;;;;;;;;;9.80;99.90;;;;;;5108389;28;19946;-59
2022/09/22 02:37:55;;;;;;;;;;;9.80;99.90;;;;;;5107443;28;19924;-58
2022/09/22 02:40:23;;;;;;;;;;;9.80;99.90;;;;;;5108879;28;20170;-58
2022/09/22 02:43:05;;;;;;;;;;;9.90;99.90;;;;;;5106096;28;19935;-59
2022/09/22 02:45:44;;;;;;;;;;;9.90;99.90;;;;;;5107491;28;19931;-57
2022/09/22 02:48:20;;;;;;;;;;;9.80;99.90;;;;;;5107055;28;19928;-58
2022/09/22 02:50:48;;;;;;;;;;;9.80;99.90;;;;;;5108503;28;20393;-59
2022/09/22 02:53:16;;;;;;;;;;;9.80;99.90;;;;;;5108522;28;19928;-58
2022/09/22 02:55:44;;;;;;;;;;;9.70;99.90;;;;;;5110704;28;19934;-58
2022/09/22 02:58:12;;;;;;;;;;;9.70;99.90;;;;;;5106931;28;19938;-58
2022/09/22 03:00:40;;;;;;;;;;;9.70;99.90;;;;;;5109275;28;19931;-58
2022/09/22 03:03:09;;;;;;;;;;;9.70;99.90;;;;;;5107367;28;19938;-59
2022/09/22 03:05:37;;;;;;;;;;;9.60;99.90;;;;;;5109502;27;19924;-58
2022/09/22 03:08:05;;;;;;;;;;;9.60;99.90;;;;;;5107661;28;19923;-58
2022/09/22 03:10:32;;;;;;;;;;;9.60;99.90;;;;;;5107734;28;19924;-58
2022/09/22 03:13:00;;;;;;;;;;;9.60;99.90;;;;;;5108996;27;19932;-58
2022/09/22 03:15:44;;;;;;;;;;;9.60;99.90;;;;;;5108517;28;21881;-58
2022/09/22 03:18:12;;;;;;;;;;;9.50;99.90;;;;;;5109368;28;19924;-58
2022/09/22 03:20:40;;;;;;;;;;;9.50;99.90;;;;;;5114211;28;19923;-58
2022/09/22 03:23:07;;;;;;;;;;;9.50;99.90;;;;;;5108664;28;19924;-59
2022/09/22 03:25:37;;;;;;;;;;;9.50;99.90;;;;;;5107419;28;20209;-59
2022/09/22 03:28:04;;;;;;;;;;;9.50;99.90;;;;;;5089901;28;19924;-59
2022/09/22 03:30:32;;;;;;;;;;;9.60;99.90;;;;;;5106526;28;19931;-57
2022/09/22 03:32:59;;;;;;;;;;;9.50;99.90;;;;;;5106323;28;19950;-58
2022/09/22 03:35:26;;;;;;;;;;;9.50;99.90;;;;;;5080219;28;19931;-58
2022/09/22 03:37:54;;;;;;;;;;;9.50;99.90;;;;;;5106742;28;20382;-58
2022/09/22 03:40:22;;;;;;;;;;;9.50;99.90;;;;;;5112071;28;19930;-58
2022/09/22 03:42:50;;;;;;;;;;;9.50;99.90;;;;;;5107327;27;19930;-58
2022/09/22 03:45:17;;;;;;;;;;;9.50;99.90;;;;;;5126271;27;19994;-57
2022/09/22 03:47:45;;;;;;;;;;;9.50;99.90;;;;;;5113854;28;20414;-58
2022/09/22 03:50:13;;;;;;;;;;;9.50;99.90;;;;;;5113587;28;20450;-57
2022/09/22 03:52:43;;;;;;;;;;;9.50;99.90;;;;;;5114436;28;19930;-56
2022/09/22 03:55:11;;;;;;;;;;;9.40;99.90;;;;;;5114503;28;19930;-57
2022/09/22 03:57:39;;;;;;;;;;;9.40;99.90;;;;;;5114669;28;19924;-56
2022/09/22 04:00:07;;;;;;;;;;;9.50;99.90;;;;;;5113171;28;19924;-57
2022/09/22 04:02:40;;;;;;;;;;;9.40;99.90;;;;;;5113806;28;19924;-56
2022/09/22 04:05:08;;;;;;;;;;;9.50;99.90;;;;;;5095703;28;19924;-56
2022/09/22 04:07:35;;;;;;;;;;;9.50;99.90;;;;;;5114164;28;19923;-56
2022/09/22 04:10:03;;;;;;;;;;;9.50;99.90;;;;;;5107079;28;19928;-57
2022/09/22 04:12:30;;;;;;;;;;;9.50;99.90;;;;;;5078993;28;19932;-57
2022/09/22 04:14:58;;;;;;;;;;;9.50;99.90;;;;;;5064763;28;19932;-57
2022/09/22 04:17:25;;;;;;;;;;;9.50;99.90;;;;;;5105768;28;20420;-58
2022/09/22 04:19:54;;;;;;;;;;;9.60;99.90;;;;;;5102883;27;19931;-59
2022/09/22 04:22:21;;;;;;;;;;;9.60;99.90;;;;;;5094416;28;19924;-58
2022/09/22 04:24:48;;;;;;;;;;;9.60;99.90;;;;;;5109487;28;19927;-58
2022/09/22 04:27:16;;;;;;;;;;;9.60;99.90;;;;;;5108205;28;19924;-59
2022/09/22 04:29:47;;;;;;;;;;;9.60;99.90;;;;;;5109683;28;19923;-59
2022/09/22 04:32:15;;;;;;;;;;;9.60;99.90;;;;;;5106234;28;19939;-59
2022/09/22 04:34:43;;;;;;;;;;;9.60;99.90;;;;;;5111889;28;19924;-59
2022/09/22 04:37:10;;;;;;;;;;;9.60;99.90;;;;;;5107079;28;19924;-58
2022/09/22 04:39:38;;;;;;;;;;;9.60;99.90;;;;;;5105023;28;20367;-59
2022/09/22 04:42:07;;;;;;;;;;;9.60;99.90;;;;;;5099223;27;19924;-59
2022/09/22 04:44:35;;;;;;;;;;;9.60;99.90;;;;;;5107247;28;19955;-59
2022/09/22 04:47:03;;;;;;;;;;;9.60;99.90;;;;;;5105355;28;19927;-58
2022/09/22 04:49:30;;;;;;;;;;;9.70;99.90;;;;;;5098339;28;19931;-59
2022/09/22 04:51:58;;;;;;;;;;;9.70;99.90;;;;;;5103007;28;19928;-58
2022/09/22 04:54:25;;;;;;;;;;;9.70;99.90;;;;;;5102197;28;19931;-59
2022/09/22 04:56:52;;;;;;;;;;;9.70;99.90;;;;;;5102953;28;19939;-58
2022/09/22 04:59:20;;;;;;;;;;;9.80;99.90;;;;;;5086283;28;19924;-59
2022/09/22 05:01:47;;;;;;;;;;;9.70;99.90;;;;;;5083982;28;19946;-59
2022/09/22 05:04:16;;;;;;;;;;;9.70;99.90;;;;;;5093874;27;20322;-58
2022/09/22 05:06:44;;;;;;;;;;;9.70;99.90;;;;;;5101179;27;20260;-59
2022/09/22 05:09:12;;;;;;;;;;;9.70;99.90;;;;;;5100072;28;19935;-58
2022/09/22 05:11:39;;;;;;;;;;;9.70;99.90;;;;;;5101374;27;20287;-59
2022/09/22 05:14:07;;;;;;;;;;;9.70;99.90;;;;;;5078966;28;20310;-59
2022/09/22 05:16:36;;;;;;;;;;;9.60;99.90;;;;;;5100053;28;20269;-59
2022/09/22 05:19:04;;;;;;;;;;;9.60;99.90;;;;;;5084215;28;19923;-58
2022/09/22 05:21:31;;;;;;;;;;;9.60;99.90;;;;;;5102929;28;19928;-58
2022/09/22 05:23:59;;;;;;;;;;;9.50;99.90;;;;;;5103328;28;19947;-59
2022/09/22 05:26:27;;;;;;;;;;;9.50;99.90;;;;;;5106656;28;19928;-56
2022/09/22 05:28:56;;;;;;;;;;;9.50;99.90;;;;;;5096642;28;19942;-57
2022/09/22 05:31:24;;;;;;;;;;;9.50;99.90;;;;;;5084034;28;19928;-57
2022/09/22 05:33:51;;;;;;;;;;;9.50;99.90;;;;;;5063345;28;19928;-57
2022/09/22 05:36:19;;;;;;;;;;;9.50;99.90;;;;;;5096902;28;20421;-57
2022/09/22 05:38:46;;;;;;;;;;;9.50;99.90;;;;;;5097285;28;19928;-57
2022/09/22 05:41:13;;;;;;;;;;;9.40;99.90;;;;;;5098631;28;19931;-56
2022/09/22 05:43:41;;;;;;;;;;;9.40;99.90;;;;;;5102333;28;19924;-57
2022/09/22 05:46:08;;;;;;;;;;;9.40;99.90;;;;;;5101308;28;20322;-59
2022/09/22 05:48:36;;;;;;;;;;;9.40;99.90;;;;;;5098586;28;19928;-58
2022/09/22 05:51:03;;;;;;;;;;;9.40;99.90;;;;;;5096327;28;19928;-58
2022/09/22 05:53:30;;;;;;;;;;;9.40;99.90;;;;;;5098448;28;19928;-57
2022/09/22 05:55:59;;;;;;;;;;;9.40;99.90;;;;;;5101151;28;19924;-58
2022/09/22 05:58:26;;;;;;;;;;;9.40;99.90;;;;;;5099895;28;20002;-58
2022/09/22 06:00:55;;;;;;;;;;;9.40;99.90;;;;;;5099040;28;19939;-57
2022/09/22 06:03:23;;;;;;;;;;;9.40;99.90;;;;;;5097132;28;19924;-59
2022/09/22 06:05:50;;;;;;;;;;;9.40;99.90;;;;;;5098033;28;20295;-58
2022/09/22 06:08:17;;;;;;;;;;;9.30;99.90;;;;;;5101615;28;19923;-57
2022/09/22 06:10:47;;;;;;;;;;;9.40;99.90;;;;;;5102032;28;19956;-58
2022/09/22 06:13:15;;;;;;;;;;;9.40;99.90;;;;;;5098827;28;20084;-58
2022/09/22 06:15:43;;;;;;;;;;;9.40;99.90;;;;;;5098194;28;19924;-58
2022/09/22 06:18:11;;;;;;;;;;;9.40;99.90;;;;;;5099047;28;21127;-59
2022/09/22 06:20:41;;;;;;;;;;;9.40;99.90;;;;;;5098775;28;19924;-59
2022/09/22 06:23:11;;;;;;;;;;;9.40;99.90;;;;;;5103135;28;19923;-58
2022/09/22 06:25:39;;;;;;;;;;;9.40;99.90;;;;;;5099865;28;19924;-57
2022/09/22 06:28:08;;;;;;;;;;;9.50;99.90;;;;;;5102998;28;20291;-57
2022/09/22 06:30:38;;;;;;;;;;;9.50;99.90;;;;;;5102704;28;19927;-56
2022/09/22 06:33:07;;;;;;;;;;;9.50;99.90;;;;;;5101184;28;19924;-57
2022/09/22 06:35:38;;;;;;;;;;;9.60;99.90;;;;;;5099912;28;20436;-57
2022/09/22 06:38:10;;;;;;;;;;;9.60;99.90;;;;;;5101066;28;19931;-57
2022/09/22 06:40:38;;;;;;;;;;;9.70;99.90;;;;;;5095745;28;19924;-57
2022/09/22 06:43:13;;;;;;;;;;;9.80;99.90;;;;;;5096120;28;19928;-57
2022/09/22 06:45:41;;;;;;;;;;;9.90;99.90;;;;;;5110943;28;20302;-59
2022/09/22 06:48:12;;;;;;;;;;;9.90;99.90;;;;;;5088224;28;19935;-59
2022/09/22 06:50:39;;;;;;;;;;;10.10;99.90;;;;;;5080339;28;20571;-58
2022/09/22 06:53:10;;;;;;;;;;;10.20;99.90;;;;;;5111587;28;19923;-58
2022/09/22 06:55:40;;;;;;;;;;;10.40;99.90;;;;;;5110600;28;20378;-59
2022/09/22 06:58:08;;;;;;;;;;;10.50;99.90;;;;;;5110008;28;20298;-59
2022/09/22 07:00:40;;;;;;;;;;;10.70;99.90;;;;;;5112219;28;20291;-59
2022/09/22 07:03:14;;;;;;;;;;;10.90;99.90;;;;;;5113930;27;19923;-58
2022/09/22 07:05:42;;;;;;;;;;;11.00;99.90;;;;;;5088238;28;19924;-59
2022/09/22 07:08:09;;;;;;;;;;;11.10;99.90;;;;;;5104328;28;19924;-61
2022/09/22 07:10:37;;;;;;;;;;;11.20;99.90;;;;;;5103685;28;19928;-58
2022/09/22 07:13:04;;;;;;;;;;;11.30;99.90;;;;;;5098800;27;19923;-60
2022/09/22 07:15:33;;;;;;;;;;;11.40;99.90;;;;;;5099850;28;20322;-60
2022/09/22 07:18:01;;;;;;;;;;;11.40;99.90;;;;;;5111505;28;19930;-59
2022/09/22 07:20:29;;;;;;;;;;;11.60;99.90;;;;;;5110361;28;19924;-57
2022/09/22 07:22:59;;;;;;;;;;;11.60;99.90;;;;;;5114306;27;20370;-59
2022/09/22 07:25:27;;;;;;;;;;;11.70;99.90;;;;;;5112197;27;19924;-60
2022/09/22 07:28:02;;;;;;;;;;;11.80;99.90;;;;;;5111541;28;19923;-59
2022/09/22 07:30:30;;;;;;;;;;;11.90;99.90;;;;;;5110890;28;20395;-57
2022/09/22 07:32:59;;;;;;;;;;;11.90;99.90;;;;;;5111425;28;19923;-59
2022/09/22 07:35:27;;;;;;;;;;;12.00;99.90;;;;;;5089507;28;19924;-57
2022/09/22 07:37:55;;;;;;;;;;;12.10;99.90;;;;;;5110054;27;19924;-58
2022/09/22 07:40:23;;;;;;;;;;;12.60;99.90;;;;;;5111192;28;19928;-58
2022/09/22 07:42:50;;;;;;;;;;;12.30;99.90;;;;;;5114464;27;20282;-58
2022/09/22 07:45:18;;;;;;;;;;;12.40;99.90;;;;;;5110649;28;20386;-58
2022/09/22 07:50:32;;;;;;;;;;;12.60;99.90;;;;;;5094131;28;19928;-59
2022/09/22 07:52:59;;;;;;;;;;;12.60;99.90;;;;;;5109062;27;19923;-59
2022/09/22 07:55:26;;;;;;;;;;;12.70;99.90;;;;;;5087478;28;19924;-59
2022/09/22 07:57:57;;;;;;;;;;;12.80;99.90;;;;;;5099761;28;20730;-58
2022/09/22 08:00:26;;;;;;;;;;;12.80;99.90;;;;;;5103851;28;19935;-58
2022/09/22 08:02:55;;;;;;;;;;;12.90;99.90;;;;;;5089942;27;19927;-58
2022/09/22 08:05:24;;;;;;;;;;;13.00;99.90;;;;;;5096900;28;19947;-57
2022/09/22 08:07:51;;;;;;;;;;;13.00;99.90;;;;;;5089081;28;19931;-59
2022/09/22 08:10:18;;;;;;;;;;;13.10;99.90;;;;;;5092675;28;19927;-58
2022/09/22 08:12:47;;;;;;;;;;;13.10;99.90;;;;;;5112826;27;19928;-58
2022/09/22 08:15:14;;;;;;;;;;;13.20;99.90;;;;;;5111844;27;20270;-59
2022/09/22 08:17:42;;;;;;;;;;;13.30;99.90;;;;;;5105637;28;19927;-58
2022/09/22 08:20:11;;;;;;;;;;;13.40;99.90;;;;;;5099779;28;19963;-60
2022/09/22 08:22:41;;;;;;;;;;;13.50;99.90;;;;;;5111063;27;19924;-58
2022/09/22 08:25:11;;;;;;;;;;;13.50;99.90;;;;;;5093601;28;19924;-58
2022/09/22 08:27:38;;;;;;;;;;;13.60;99.90;;;;;;5091233;28;20374;-60
2022/09/22 08:30:10;;;;;;;;;;;13.70;99.90;;;;;;5101674;28;19931;-60
2022/09/22 08:32:38;;;;;;;;;;;13.80;99.90;;;;;;5098915;28;20294;-58
2022/09/22 08:35:07;;;;;;;;;;;13.90;99.90;;;;;;5116810;27;19923;-58
2022/09/22 08:37:36;;;;;;;;;;;13.90;99.90;;;;;;5105094;28;19927;-58
2022/09/22 08:40:08;;;;;;;;;;;14.00;99.90;;;;;;5068950;28;20024;-60
2022/09/22 08:42:36;;;;;;;;;;;14.00;99.90;;;;;;5105464;27;19934;-58
2022/09/22 08:45:14;;;;;;;;;;;14.10;99.90;;;;;;5105185;28;20398;-59
2022/09/22 08:53:31;;;;;;;;;;;14.20;99.90;;;;;;5106777;27;19923;-58
2022/09/22 08:56:05;;;;;;;;;;;14.30;99.90;;;;;;5109175;28;20403;-58
2022/09/22 08:58:39;;;;;;;;;;;14.30;99.90;;;;;;5109056;27;19994;-57
2022/09/22 09:01:34;;;;;;;;;;;14.30;99.90;;;;;;5108895;28;19927;-58
2022/09/22 09:04:09;;;;;;;;;;;14.40;99.90;;;;;;5105994;28;19924;-58
2022/09/22 09:06:48;;;;;;;;;;;14.40;99.90;;;;;;5108371;28;20407;-59
2022/09/22 09:09:19;;;;;;;;;;;14.40;99.90;;;;;;5077860;28;19931;-58
2022/09/22 09:11:52;;;;;;;;;;;14.50;99.90;;;;;;5067193;27;20451;-59
2022/09/22 09:14:31;;;;;;;;;;;14.40;99.90;;;;;;5115451;27;19924;-58
2022/09/22 09:17:07;;;;;;;;;;;14.50;99.90;;;;;;5108345;28;19924;-59
2022/09/22 09:19:52;;;;;;;;;;;14.50;99.90;;;;;;5129360;27;20579;-59
2022/09/22 09:22:24;;;;;;;;;;;14.50;99.90;;;;;;5129961;27;19923;-60
2022/09/22 09:24:57;;;;;;;;;;;14.60;99.90;;;;;;5091837;28;20465;-60
2022/09/22 09:27:45;;;;;;;;;;;14.70;99.90;;;;;;5108152;28;20419;-60
2022/09/22 09:30:16;;;;;;;;;;;14.70;99.90;;;;;;5106681;28;20504;-59
2022/09/22 09:33:10;;;;;;;;;;;14.80;99.90;;;;;;5108097;28;19924;-60
2022/09/22 09:35:38;;;;;;;;;;;14.90;99.90;;;;;;5127232;27;19923;-59
2022/09/22 09:38:16;;;;;;;;;;;15.00;99.90;;;;;;5098332;28;19934;-59
2022/09/22 09:40:48;;;;;;;;;;;15.10;99.90;;;;;;5087484;28;19923;-59
2022/09/22 09:43:15;;;;;;;;;;;15.20;99.90;;;;;;5099246;28;19955;-61
2022/09/22 09:45:43;;;;;;;;;;;15.30;99.90;;;;;;5088947;28;20393;-63
2022/09/22 09:48:25;;;;;;;;;;;15.50;99.90;;;;;;5103564;28;19931;-61
2022/09/22 09:50:53;;;;;;;;;;;15.60;99.90;;;;;;5084317;28;20078;-60
2022/09/22 09:53:30;;;;;;;;;;;15.60;99.90;;;;;;5100860;28;19923;-60
2022/09/22 09:55:57;;;;;;;;;;;15.70;99.90;;;;;;5069950;28;20401;-60
2022/09/22 10:01:28;;;;;;;;;;;15.90;99.90;;;;;;5025718;28;19925;-60
2022/09/22 10:03:56;;;;;;;;;;;16.00;99.90;;;;;;5081229;28;19928;-60
2022/09/22 10:06:25;;;;;;;;;;;16.10;99.90;;;;;;5073291;28;19927;-61
2022/09/22 10:08:55;;;;;;;;;;;16.20;99.90;;;;;;5098863;28;19928;-60
2022/09/22 10:11:30;;;;;;;;;;;16.30;99.90;;;;;;5087813;28;19953;-61
2022/09/22 10:13:57;;;;;;;;;;;16.40;99.90;;;;;;5125241;28;19923;-58
2022/09/22 10:16:27;;;;;;;;;;;16.50;99.90;;;;;;5108221;28;20469;-60
2022/09/22 10:18:57;;;;;;;;;;;16.60;99.90;;;;;;5095804;28;19923;-60
2022/09/22 10:21:25;;;;;;;;;;;16.60;99.90;;;;;;5108543;28;20575;-60
2022/09/22 10:23:54;;;;;;;;;;;16.70;99.90;;;;;;5107441;28;19924;-60
2022/09/22 10:26:29;;;;;;;;;;;16.80;99.90;;;;;;5112818;28;19924;-62
2022/09/22 10:29:19;;;;;;;;;;;16.80;99.90;;;;;;5128164;27;19927;-61
2022/09/22 10:32:06;;;;;;;;;;;16.90;99.90;;;;;;5133637;27;19923;-60
2022/09/22 10:34:33;;;;;;;;;;;17.00;99.90;;;;;;5133041;27;19928;-60
2022/09/22 10:37:02;;;;;;;;;;;17.10;99.90;;;;;;5115059;27;19946;-62
2022/09/22 10:39:39;;;;;;;;;;;17.20;99.90;;;;;;5106742;27;20283;-60
2022/09/22 10:42:11;;;;;;;;;;;17.20;99.90;;;;;;5101667;27;19927;-58
2022/09/22 10:44:39;;;;;;;;;;;17.30;99.90;;;;;;5114664;27;19930;-62
2022/09/22 10:47:14;;;;;;;;;;;17.40;99.90;;;;;;5132469;27;19923;-61
2022/09/22 10:49:54;;;;;;;;;;;17.40;99.90;;;;;;5112604;28;19946;-62
2022/09/22 10:52:27;;;;;;;;;;;17.50;99.90;;;;;;5112507;28;19936;-61
2022/09/22 10:54:54;;;;;;;;;;;17.50;99.90;;;;;;5112911;27;19924;-60
2022/09/22 10:57:40;;;;;;;;;;;17.50;99.90;;;;;;5093735;28;19924;-60
2022/09/22 11:00:28;;;;;;;;;;;17.40;99.90;;;;;;5112270;28;19931;-60
2022/09/22 11:03:01;;;;;;;;;;;17.30;99.90;;;;;;5110741;27;19924;-59
2022/09/22 11:12:16;;;;;;;;;;;17.50;99.90;;;;;;5094324;27;20375;-61
2022/09/22 11:14:46;;;;;;;;;;;17.50;99.90;;;;;;5132390;27;19930;-60
2022/09/22 11:17:33;;;;;;;;;;;17.60;99.90;;;;;;5131968;27;19932;-58
2022/09/22 11:20:20;;;;;;;;;;;17.60;99.90;;;;;;5111624;28;19959;-60
2022/09/22 11:22:57;;;;;;;;;;;17.60;99.90;;;;;;5112322;27;19930;-60
2022/09/22 11:25:25;;;;;;;;;;;17.50;99.90;;;;;;5108871;27;19931;-59
2022/09/22 11:28:19;;;;;;;;;;;17.40;99.90;;;;;;5097399;28;20428;-58
2022/09/22 11:30:50;;;;;;;;;;;17.40;99.90;;;;;;5063885;28;19928;-59
2022/09/22 11:33:30;;;;;;;;;;;17.40;99.90;;;;;;5116518;27;20317;-60
2022/09/22 11:36:12;;;;;;;;;;;17.30;99.90;;;;;;5112660;27;19938;-58
2022/09/22 11:38:52;;;;;;;;;;;17.30;99.90;;;;;;5132181;27;19923;-58
2022/09/22 11:41:30;;;;;;;;;;;17.30;99.90;;;;;;5094848;27;20375;-57
2022/09/22 11:43:57;;;;;;;;;;;17.20;99.90;;;;;;5131806;27;19923;-57
2022/09/22 11:46:41;;;;;;;;;;;17.20;99.90;;;;;;5132188;27;19934;-57
2022/09/22 11:49:08;;;;;;;;;;;17.30;99.90;;;;;;5097125;28;19924;-60
2022/09/22 11:51:50;;;;;;;;;;;17.40;99.90;;;;;;5111381;28;19931;-59
2022/09/22 11:54:36;;;;;;;;;;;17.40;99.90;;;;;;5122982;27;19930;-58
2022/09/22 11:57:08;;;;;;;;;;;17.50;99.90;;;;;;5090771;28;19931;-59
2022/09/22 11:59:47;;;;;;;;;;;17.50;99.90;;;;;;5107998;28;19923;-58
2022/09/22 12:02:27;;;;;;;;;;;17.50;99.90;;;;;;5106705;28;20434;-58
2022/09/22 12:05:08;;;;;;;;;;;17.50;99.90;;;;;;5128875;27;19923;-58
2022/09/22 12:07:43;;;;;;;;;;;17.40;99.90;;;;;;5128139;27;19923;-59
2022/09/22 12:10:16;;;;;;;;;;;17.40;99.90;;;;;;5085941;28;19924;-61
2022/09/22 12:12:47;;;;;;;;;;;17.30;99.90;;;;;;5092242;27;20453;-58
2022/09/22 12:15:19;;;;;;;;;;;17.30;99.90;;;;;;5100211;28;19938;-59
2022/09/22 12:18:09;;;;;;;;;;;17.90;99.90;;;;;;5095406;28;19928;-60
2022/09/22 12:21:00;;;;;;;;;;;17.20;99.90;;;;;;5109761;28;19931;-61
2022/09/22 12:23:36;;;;;;;;;;;17.10;99.90;;;;;;5071216;27;19937;-59
2022/09/22 12:26:06;;;;;;;;;;;17.10;99.90;;;;;;5086156;28;19924;-60
2022/09/22 12:28:41;;;;;;;;;;;17.10;99.90;;;;;;5063332;28;19931;-59
2022/09/22 12:31:14;;;;;;;;;;;17.20;99.90;;;;;;5090495;28;20302;-59
2022/09/22 12:33:48;;;;;;;;;;;17.30;99.90;;;;;;5097958;28;19923;-60
2022/09/22 12:36:16;;;;;;;;;;;17.40;99.90;;;;;;5092634;28;19943;-60
2022/09/22 12:38:44;;;;;;;;;;;17.40;99.90;;;;;;5092121;28;19928;-59
2022/09/22 12:41:16;;;;;;;;;;;17.40;99.90;;;;;;5096626;28;19943;-59
2022/09/22 12:43:44;;;;;;;;;;;17.40;99.90;;;;;;5126394;27;19924;-61
2022/09/22 12:46:18;;;;;;;;;;;17.30;99.90;;;;;;5130771;27;20387;-60
2022/09/22 12:48:45;;;;;;;;;;;17.30;99.90;;;;;;5098544;28;20295;-59
2022/09/22 12:51:14;;;;;;;;;;;17.30;99.90;;;;;;5109583;28;20383;-58
2022/09/22 12:53:42;;;;;;;;;;;17.30;99.90;;;;;;5117620;27;20291;-61
2022/09/22 12:56:30;;;;;;;;;;;17.30;99.90;;;;;;5104388;27;20395;-62
2022/09/22 12:58:57;;;;;;;;;;;17.30;99.90;;;;;;5085924;28;19927;-60
2022/09/22 13:01:32;;;;;;;;;;;17.40;99.90;;;;;;5109798;28;19931;-59
2022/09/22 13:04:14;;;;;;;;;;;17.40;99.90;;;;;;5109747;28;19924;-60
2022/09/22 13:06:42;;;;;;;;;;;17.40;99.90;;;;;;5110116;28;20283;-59
2022/09/22 13:09:20;;;;;;;;;;;17.40;99.90;;;;;;5109454;28;20295;-58
2022/09/22 13:12:07;;;;;;;;;;;17.40;99.90;;;;;;5078928;27;20049;-59
2022/09/22 13:14:52;;;;;;;;;;;17.40;99.90;;;;;;5114951;27;19939;-59
2022/09/22 13:17:42;;;;;;;;;;;17.30;99.90;;;;;;5109450;28;19931;-60
2022/09/22 13:20:14;;;;;;;;;;;17.20;99.90;;;;;;5109273;28;19924;-58
2022/09/22 13:22:42;;;;;;;;;;;17.20;99.90;;;;;;5109221;28;20103;-61
2022/09/22 13:25:13;;;;;;;;;;;17.20;99.90;;;;;;5124856;27;19930;-59
2022/09/22 13:27:41;;;;;;;;;;;17.10;99.90;;;;;;5093005;28;19930;-59
2022/09/22 13:30:11;;;;;;;;;;;17.10;99.90;;;;;;5091272;28;20492;-60
2022/09/22 13:32:46;;;;;;;;;;;17.10;99.90;;;;;;5109274;28;19924;-61
2022/09/22 13:35:26;;;;;;;;;;;17.00;99.90;;;;;;5129801;27;19932;-59
2022/09/22 13:37:57;;;;;;;;;;;17.00;99.90;;;;;;5123996;27;19924;-58
2022/09/22 13:40:30;;;;;;;;;;;16.90;99.90;;;;;;5087909;28;19924;-58
2022/09/22 13:43:00;;;;;;;;;;;16.90;99.90;;;;;;5112293;27;19938;-59
2022/09/22 13:45:29;;;;;;;;;;;16.90;99.90;;;;;;5129904;27;20310;-64
2022/09/22 13:48:15;;;;;;;;;;;16.90;99.90;;;;;;5123746;27;19924;-61
2022/09/22 13:50:57;;;;;;;;;;;16.80;99.90;;;;;;5109295;28;20291;-58
2022/09/22 13:53:25;;;;;;;;;;;16.80;99.90;;;;;;5095980;27;19923;-62
2022/09/22 13:55:53;;;;;;;;;;;16.60;99.90;;;;;;5116504;27;19924;-58
2022/09/22 13:58:27;;;;;;;;;;;16.50;99.90;;;;;;5097610;28;19923;-57
2022/09/22 14:00:56;;;;;;;;;;;16.30;99.90;;;;;;5090533;28;20386;-58
2022/09/22 14:03:41;;;;;;;;;;;16.10;99.90;;;;;;5115906;28;19931;-56
2022/09/22 14:06:10;;;;;;;;;;;15.90;99.90;;;;;;5128622;28;19931;-58
2022/09/22 14:08:38;;;;;;;;;;;15.80;99.90;;;;;;5112638;28;19935;-57
2022/09/22 14:11:10;;;;;;;;;;;15.70;99.90;;;;;;5099110;28;20402;-58
2022/09/22 14:13:39;;;;;;;;;;;15.50;99.90;;;;;;5109495;28;19924;-59
2022/09/22 14:16:08;;;;;;;;;;;15.30;99.90;;;;;;5108933;28;19931;-57
2022/09/22 14:18:39;;;;;;;;;;;15.20;99.90;;;;;;5109006;28;19949;-57
2022/09/22 14:21:08;;;;;;;;;;;15.10;99.90;;;;;;5090813;28;19958;-57
2022/09/22 14:23:35;;;;;;;;;;;15.10;99.90;;;;;;5114739;28;19935;-59
2022/09/22 14:26:16;;;;;;;;;;;15.00;99.90;;;;;;5117805;28;19928;-57
2022/09/22 14:28:44;;;;;;;;;;;15.00;99.90;;;;;;5082794;28;20407;-58
2022/09/22 14:31:14;;;;;;;;;;;15.00;99.90;;;;;;5108850;28;19923;-57
2022/09/22 14:33:44;;;;;;;;;;;15.00;99.90;;;;;;5108628;28;19930;-58
2022/09/22 14:36:16;;;;;;;;;;;14.90;99.90;;;;;;5108876;28;19931;-57
2022/09/22 14:38:44;;;;;;;;;;;14.90;99.90;;;;;;5108715;28;19924;-61
2022/09/22 14:41:27;;;;;;;;;;;14.90;99.90;;;;;;5101020;28;20256;-61
2022/09/22 14:43:54;;;;;;;;;;;14.90;99.90;;;;;;5118620;28;19930;-61
2022/09/22 14:46:27;;;;;;;;;;;14.90;99.90;;;;;;5108868;28;20725;-63
2022/09/22 14:48:54;;;;;;;;;;;14.90;99.90;;;;;;5090168;28;19928;-60
2022/09/22 14:51:23;;;;;;;;;;;14.90;99.90;;;;;;5108682;28;19928;-60
2022/09/22 14:54:01;;;;;;;;;;;14.90;99.90;;;;;;5116743;28;20275;-61
2022/09/22 14:56:32;;;;;;;;;;;14.90;99.90;;;;;;5102657;28;19927;-60
2022/09/22 15:02:30;;;;;;;;;;;14.90;99.90;;;;;;5108433;28;19931;-62
2022/09/22 15:04:40;;;;;;;;;;;14.80;99.90;;;;;;5107986;28;19924;-62
2022/09/22 15:07:25;;;;;;;;;;;14.80;99.90;;;;;;5108608;28;19924;-59